Time;durP1;ratioP1;P1;durP2;ratioP2;P2;SDS_P1;SDS_P2;PMS_P1;PMS_P2;Temp;Humidity;BMP_temperature;BMP_pressure;BME280_temperature;BME280_humidity;BME280_pressure;Samples;Min_cycle;Max_cycle;Signal;HPM_P1;HPM_P2
2022/01/23 00:02:43;;;;;;;8.75;6.50;;;;;;;4.81;100.00;102900.19;4898857;29;20165;-41
2022/01/23 00:05:08;;;;;;;10.52;8.20;;;;;;;4.75;100.00;102906.25;4898532;29;20200;-42
2022/01/23 00:07:34;;;;;;;17.70;8.10;;;;;;;4.73;100.00;102915.06;4898732;29;20205;-42
2022/01/23 00:10:04;;;;;;;12.38;8.77;;;;;;;4.71;100.00;102904.41;4898399;29;20259;-42
2022/01/23 00:12:35;;;;;;;11.57;7.70;;;;;;;4.82;100.00;102912.56;4897563;29;20203;-42
2022/01/23 00:17:44;;;;;;;9.95;7.70;;;;;;;4.81;100.00;102916.13;4897037;29;20575;-42
2022/01/23 00:20:12;;;;;;;13.38;7.45;;;;;;;4.75;100.00;102914.22;4898597;29;20205;-43
2022/01/23 00:22:51;;;;;;;12.13;8.02;;;;;;;4.74;100.00;102930.09;4898240;29;20168;-42
2022/01/23 00:30:46;;;;;;;10.52;6.60;;;;;;;4.83;100.00;102932.06;4897018;29;20191;-43
2022/01/23 00:33:13;;;;;;;9.70;7.32;;;;;;;4.80;100.00;102939.97;4896748;29;20556;-41
2022/01/23 00:35:42;;;;;;;7.63;6.82;;;;;;;4.88;100.00;102938.38;4898181;29;20209;-42
2022/01/23 00:38:09;;;;;;;10.27;6.88;;;;;;;4.79;100.00;102947.06;4897970;29;20183;-41
2022/01/23 00:40:37;;;;;;;8.50;6.15;;;;;;;4.81;100.00;102942.66;4912755;29;20566;-43
2022/01/23 00:43:16;;;;;;;7.05;6.38;;;;;;;4.78;100.00;102953.22;4912264;29;20228;-44
2022/01/23 00:45:49;;;;;;;8.65;6.25;;;;;;;4.81;100.00;102942.66;4897720;29;20217;-43
2022/01/23 00:48:16;;;;;;;8.95;6.15;;;;;;;4.81;100.00;102939.09;4912413;29;20176;-42
2022/01/23 00:50:44;;;;;;;9.77;6.13;;;;;;;4.80;100.00;102950.59;4897827;29;20193;-41
2022/01/23 00:53:12;;;;;;;10.32;6.32;;;;;;;4.83;100.00;102942.69;4896701;29;20225;-44
2022/01/23 00:55:40;;;;;;;9.23;6.13;;;;;;;4.84;100.00;102955.09;4897412;29;20197;-42
2022/01/23 00:58:06;;;;;;;8.02;5.75;;;;;;;4.82;100.00;102941.78;4897286;29;20184;-42
2022/01/23 01:00:32;;;;;;;10.10;5.90;;;;;;;4.86;100.00;102950.72;4897337;29;20630;-41
2022/01/23 01:03:01;;;;;;;8.52;6.25;;;;;;;4.80;100.00;102951.47;4896131;29;20214;-45
2022/01/23 01:05:28;;;;;;;9.57;6.05;;;;;;;4.82;100.00;102951.53;4897633;29;20559;-44
2022/01/23 01:07:55;;;;;;;9.15;4.78;;;;;;;4.90;100.00;102955.22;4897291;29;20195;-42
2022/01/23 01:10:28;;;;;;;8.15;5.68;;;;;;;4.90;100.00;102950.81;4897723;29;20646;-43
2022/01/23 01:13:00;;;;;;;10.85;5.60;;;;;;;4.87;100.00;102961.34;4897409;29;20176;-43
2022/01/23 01:31:32;;;;;;;10.00;5.72;;;;;;;4.94;100.00;102930.50;4897100;29;20177;-43
2022/01/23 01:34:20;;;;;;;7.68;5.40;;;;;;;5.00;100.00;102945.66;4896927;29;20161;-42
2022/01/23 01:36:48;;;;;;;7.05;5.78;;;;;;;4.88;100.00;102947.22;4911280;29;20299;-43
2022/01/23 01:39:17;;;;;;;9.18;5.93;;;;;;;4.91;100.00;102949.94;4895867;29;20568;-42
2022/01/23 01:41:44;;;;;;;7.50;4.90;;;;;;;5.04;100.00;102952.84;4895319;29;20169;-42
2022/01/23 01:44:10;;;;;;;10.45;5.50;;;;;;;4.97;100.00;102953.59;4895380;29;20180;-40
2022/01/23 01:46:51;;;;;;;7.38;5.60;;;;;;;4.93;100.00;102958.81;4895470;29;20231;-46
2022/01/23 01:49:26;;;;;;;8.88;5.47;;;;;;;4.92;100.00;102957.03;4895567;29;20656;-42
2022/01/23 01:51:53;;;;;;;7.45;5.85;;;;;;;4.97;100.00;102965.09;4911151;29;20188;-42
2022/01/23 01:54:21;;;;;;;8.75;5.45;;;;;;;4.95;100.00;102962.41;4895244;29;20598;-42
2022/01/23 01:57:04;;;;;;;5.93;5.03;;;;;;;5.02;100.00;102971.38;4895324;29;20286;-42
2022/01/23 02:08:23;;;;;;;7.28;4.80;;;;;;;4.99;100.00;102967.81;4894453;29;20176;-42
2022/01/23 02:10:52;;;;;;;6.07;5.10;;;;;;;4.97;100.00;102962.44;4910929;29;20248;-42
2022/01/23 02:13:24;;;;;;;9.50;5.15;;;;;;;4.97;100.00;102959.78;4910624;29;20191;-40
2022/01/23 02:22:24;;;;;;;8.60;5.40;;;;;;;4.94;100.00;102943.78;4896147;29;20168;-40
2022/01/23 02:52:17;;;;;;;8.05;5.68;;;;;;;5.04;100.00;102968.78;4894466;29;20446;-42
2022/01/23 02:55:34;;;;;;;10.60;5.45;;;;;;;5.01;100.00;102966.03;4894161;29;20600;-41
2022/01/23 02:57:38;;;;;;;8.00;6.18;;;;;;;5.02;100.00;102967.84;4891709;29;20228;-42
2022/01/23 03:00:17;;;;;;;8.65;6.15;;;;;;;5.02;100.00;102965.19;4894352;29;20216;-42
2022/01/23 03:03:04;;;;;;;12.27;5.90;;;;;;;5.03;100.00;102967.88;4895790;29;20672;-44
2022/01/23 03:06:11;;;;;;;10.05;5.70;;;;;;;5.02;100.00;102968.72;4894139;29;20452;-42
2022/01/23 03:14:13;;;;;;;8.45;5.55;;;;;;;5.06;100.00;102967.03;4895479;29;20183;-42
2022/01/23 03:29:51;;;;;;;6.78;5.43;;;;;;;5.04;100.00;102964.34;4899776;29;20264;-43
2022/01/23 03:32:39;;;;;;;8.55;5.32;;;;;;;5.08;100.00;102960.88;4901599;29;20743;-44
2022/01/23 03:35:06;;;;;;;9.25;5.03;;;;;;;5.06;100.00;102961.72;4900764;29;20591;-42
2022/01/23 03:37:31;;;;;;;8.02;4.93;;;;;;;5.10;100.00;102964.47;4897146;29;20300;-41
2022/01/23 03:39:57;;;;;;;6.97;4.22;;;;;;;5.09;100.00;102967.97;4882522;29;20166;-42
2022/01/23 03:42:23;;;;;;;7.95;4.60;;;;;;;5.08;100.00;102971.50;4882916;29;20528;-45
2022/01/23 03:45:09;;;;;;;6.75;4.35;;;;;;;5.05;100.00;102973.19;4882593;29;20181;-44
2022/01/23 03:48:01;;;;;;;8.80;4.50;;;;;;;5.09;100.00;102980.38;4883052;29;20663;-43
2022/01/23 03:50:20;;;;;;;8.38;4.35;;;;;;;5.07;100.00;102985.69;4882720;29;20189;-43
2022/01/23 03:52:52;;;;;;;7.18;4.63;;;;;;;5.07;100.00;102976.78;4882603;29;20166;-41
2022/01/23 03:55:18;;;;;;;8.27;4.72;;;;;;;5.07;100.00;102995.38;4882705;29;20248;-42
2022/01/23 03:57:43;;;;;;;4.97;4.00;;;;;;;5.10;100.00;102991.03;4880978;29;20304;-44
2022/01/23 04:00:10;;;;;;;7.55;3.95;;;;;;;5.06;100.00;102989.19;4881343;29;20205;-46
2022/01/23 04:02:41;;;;;;;6.00;4.32;;;;;;;5.06;100.00;102996.25;4882775;29;20179;-44
2022/01/23 04:05:13;;;;;;;8.15;4.15;;;;;;;5.11;100.00;103002.56;4880890;29;20245;-44
2022/01/23 04:07:38;;;;;;;10.70;4.97;;;;;;;5.07;100.00;103003.34;4881180;29;20212;-43
2022/01/23 04:10:04;;;;;;;9.80;3.78;;;;;;;5.08;100.00;102997.19;4880873;29;20658;-45
2022/01/23 04:13:13;;;;;;;8.10;4.03;;;;;;;5.05;100.00;103010.41;4881319;29;20237;-42
2022/01/23 04:34:34;;;;;;;4.68;3.65;;;;;;;5.03;100.00;103007.72;4914271;29;20184;-43
2022/01/23 04:45:25;;;;;;;7.93;3.60;;;;;;;5.06;100.00;102985.63;4897483;29;20181;-44
2022/01/23 05:01:27;;;;;;;6.97;3.95;;;;;;;5.09;100.00;103009.59;4895736;29;20354;-43
2022/01/23 05:04:20;;;;;;;7.88;4.13;;;;;;;5.08;100.00;103014.03;4896126;29;20187;-44
2022/01/23 05:07:04;;;;;;;7.55;4.32;;;;;;;5.09;100.00;103015.81;4895993;29;20721;-44
2022/01/23 05:09:52;;;;;;;8.02;3.65;;;;;;;5.08;100.00;103023.75;4897412;29;20685;-43
2022/01/23 05:12:30;;;;;;;6.82;3.70;;;;;;;5.09;100.00;103022.88;4895961;29;20177;-44
2022/01/23 05:14:56;;;;;;;9.00;4.15;;;;;;;5.11;100.00;103011.41;4895798;29;20197;-45
2022/01/23 05:17:21;;;;;;;6.07;3.78;;;;;;;5.11;100.00;103013.19;4896021;29;20247;-44
2022/01/23 05:19:47;;;;;;;6.40;3.83;;;;;;;5.09;100.00;103012.25;4895758;29;20612;-43
2022/01/23 05:22:24;;;;;;;4.75;4.00;;;;;;;5.12;100.00;103015.00;4895954;29;20189;-43
2022/01/23 05:24:56;;;;;;;4.53;3.45;;;;;;;5.11;100.00;103018.50;4879816;29;20568;-43
2022/01/23 05:27:22;;;;;;;6.18;3.28;;;;;;;5.12;100.00;103023.84;4895756;29;20632;-44
2022/01/23 05:29:48;;;;;;;6.70;3.53;;;;;;;5.13;100.00;103024.75;4897140;29;20569;-45
2022/01/23 05:32:14;;;;;;;5.30;3.60;;;;;;;5.18;100.00;103032.81;4897117;29;20259;-48
2022/01/23 05:34:41;;;;;;;3.72;3.13;;;;;;;5.17;100.00;103039.88;4896570;29;20638;-46
2022/01/23 05:37:18;;;;;;;5.35;3.78;;;;;;;5.12;100.00;103037.13;4895303;29;20232;-40
2022/01/23 05:39:46;;;;;;;5.65;3.70;;;;;;;5.12;100.00;103042.44;4895491;29;20181;-45
2022/01/23 05:42:12;;;;;;;6.43;3.63;;;;;;;5.10;100.00;103035.31;4895341;29;20183;-42
2022/01/23 05:44:40;;;;;;;3.90;2.78;;;;;;;5.09;100.00;103047.69;4895026;29;20621;-47
2022/01/23 05:47:09;;;;;;;5.07;3.47;;;;;;;5.12;100.00;103055.75;4895161;29;20224;-44
2022/01/23 05:49:57;;;;;;;5.03;3.95;;;;;;;5.22;100.00;103045.28;4895982;29;20699;-42
2022/01/23 05:52:46;;;;;;;7.30;4.15;;;;;;;5.22;100.00;103054.16;4896663;29;20673;-45
2022/01/23 05:55:37;;;;;;;7.32;3.65;;;;;;;5.19;100.00;103051.44;4894792;29;20236;-45
2022/01/23 05:58:10;;;;;;;9.02;4.90;;;;;;;5.21;100.00;103052.38;4896923;29;20169;-46
2022/01/23 06:00:42;;;;;;;8.10;4.65;;;;;;;5.25;100.00;103061.31;4894817;29;20668;-42
2022/01/23 06:03:13;;;;;;;7.28;4.93;;;;;;;5.19;100.00;103058.53;4895467;29;20193;-45
2022/01/23 06:05:46;;;;;;;9.77;5.25;;;;;;;5.23;100.00;103069.25;4894677;29;20177;-43
2022/01/23 06:08:26;;;;;;;7.18;5.00;;;;;;;5.21;100.00;103070.97;4895064;29;20676;-42
2022/01/23 06:10:58;;;;;;;7.22;4.80;;;;;;;5.27;100.00;103067.53;4895025;29;20181;-44
2022/01/23 06:13:32;;;;;;;7.15;5.63;;;;;;;5.25;100.00;103070.16;4894729;29;20177;-44
2022/01/23 06:15:58;;;;;;;9.00;5.18;;;;;;;5.23;100.00;103071.91;4895972;29;20275;-42
2022/01/23 06:18:25;;;;;;;8.80;5.88;;;;;;;5.25;100.00;103070.16;4894804;29;20169;-43
2022/01/23 06:21:09;;;;;;;7.32;5.00;;;;;;;5.28;100.00;103070.22;4896573;29;20276;-44
2022/01/23 06:24:02;;;;;;;9.10;5.05;;;;;;;5.26;100.00;103076.38;4895580;29;20215;-43
2022/01/23 06:26:56;;;;;;;7.00;4.47;;;;;;;5.33;100.00;103076.50;4896253;29;20278;-42
2022/01/23 06:29:25;;;;;;;9.60;4.70;;;;;;;5.30;100.00;103068.50;4894667;29;20177;-43
2022/01/23 06:31:53;;;;;;;4.82;3.88;;;;;;;5.30;100.00;103073.81;4894787;29;20176;-44
2022/01/23 06:34:19;;;;;;;7.88;4.60;;;;;;;5.29;100.00;103074.69;4895504;29;20206;-47
2022/01/23 06:36:45;;;;;;;7.68;4.38;;;;;;;5.30;100.00;103076.47;4895476;29;20240;-43
2022/01/23 06:39:13;;;;;;;7.95;4.40;;;;;;;5.26;100.00;103077.25;4895132;29;20181;-43
2022/01/23 06:41:40;;;;;;;6.63;4.18;;;;;;;5.30;100.00;103073.81;4894505;29;20638;-42
2022/01/23 06:44:21;;;;;;;5.00;3.90;;;;;;;5.32;100.00;103066.75;4893969;29;20192;-45
2022/01/23 06:46:47;;;;;;;8.63;4.03;;;;;;;5.28;100.00;103072.88;4894031;29;20705;-45
2022/01/23 06:49:13;;;;;;;5.13;3.88;;;;;;;5.30;100.00;103078.22;4895752;29;20211;-41
2022/01/23 06:51:42;;;;;;;5.25;3.85;;;;;;;5.30;100.00;103080.88;4893994;29;20192;-41
2022/01/23 06:54:08;;;;;;;7.38;4.40;;;;;;;5.27;100.00;103087.03;4893802;29;20591;-43
2022/01/23 06:56:35;;;;;;;6.72;4.38;;;;;;;5.29;100.00;103082.66;4893782;29;20208;-41
2022/01/23 06:59:00;;;;;;;12.40;5.18;;;;;;;5.25;100.00;103093.19;4894315;29;20564;-41
2022/01/23 07:01:26;;;;;;;9.98;4.95;;;;;;;5.29;100.00;103098.59;4894057;29;20211;-42
2022/01/23 07:04:12;;;;;;;7.88;5.00;;;;;;;5.28;100.00;103091.47;4894481;29;20224;-45
2022/01/23 07:06:48;;;;;;;8.07;4.50;;;;;;;5.30;100.00;103104.81;4893828;29;20689;-45
2022/01/23 07:09:21;;;;;;;9.38;5.00;;;;;;;5.28;100.00;103112.75;4894296;29;20617;-41
2022/01/23 07:12:05;;;;;;;8.82;4.95;;;;;;;5.29;100.00;103124.25;4895236;29;20201;-43
2022/01/23 07:14:51;;;;;;;13.13;5.22;;;;;;;5.29;100.00;103113.63;4893448;29;20231;-43
2022/01/23 07:17:51;;;;;;;9.48;4.45;;;;;;;5.26;100.00;103119.78;4893709;29;20239;-46
2022/01/23 07:20:22;;;;;;;8.38;4.50;;;;;;;5.19;100.00;103117.88;4925471;29;20630;-45
2022/01/23 07:22:49;;;;;;;7.88;4.20;;;;;;;5.26;100.00;103129.53;4912575;29;20571;-41
2022/01/23 07:25:16;;;;;;;6.43;4.07;;;;;;;5.29;100.00;103130.50;4913375;29;20168;-41
2022/01/23 07:27:49;;;;;;;7.75;4.25;;;;;;;5.29;100.00;103130.50;4912750;29;20255;-43
2022/01/23 07:30:33;;;;;;;6.97;4.50;;;;;;;5.29;100.00;103126.91;4928524;29;20195;-42
2022/01/23 07:32:58;;;;;;;9.77;4.75;;;;;;;5.26;100.00;103127.75;4911491;29;20239;-43
2022/01/23 07:35:24;;;;;;;9.50;4.85;;;;;;;5.22;100.00;103133.88;4912504;29;20188;-42
2022/01/23 07:37:49;;;;;;;5.93;3.95;;;;;;;5.26;100.00;103132.19;4902592;29;20201;-45
2022/01/23 07:40:36;;;;;;;8.68;4.40;;;;;;;5.36;100.00;103134.19;4894170;29;20548;-44
2022/01/23 07:43:06;;;;;;;6.93;4.40;;;;;;;5.29;100.00;103143.78;4894020;29;20184;-42
2022/01/23 07:45:50;;;;;;;7.85;4.65;;;;;;;5.25;100.00;103149.91;4894486;29;20316;-42
2022/01/23 07:48:36;;;;;;;9.98;4.95;;;;;;;5.32;100.00;103137.63;4894055;29;20713;-42
2022/01/23 07:51:20;;;;;;;7.63;4.60;;;;;;;5.31;100.00;103142.06;4893069;29;20544;-43
2022/01/23 07:53:58;;;;;;;8.00;4.85;;;;;;;5.30;100.00;103160.63;4893077;29;20251;-42
2022/01/23 07:56:49;;;;;;;8.82;4.95;;;;;;;5.35;100.00;103162.50;4893507;29;20603;-43
2022/01/23 07:59:34;;;;;;;9.95;5.35;;;;;;;5.40;100.00;103165.28;4895054;29;20669;-42
2022/01/23 08:02:18;;;;;;;10.88;5.40;;;;;;;5.34;100.00;103166.03;4894909;29;20571;-45
2022/01/23 08:05:04;;;;;;;9.05;5.13;;;;;;;5.34;100.00;103160.72;4894017;29;20191;-44
2022/01/23 08:10:11;;;;;;;8.18;5.30;;;;;;;5.41;100.00;103166.16;4897023;29;20184;-45
2022/01/23 08:12:37;;;;;;;9.95;5.45;;;;;;;5.37;100.00;103168.75;4897561;29;20184;-42
2022/01/23 08:15:04;;;;;;;9.68;5.38;;;;;;;5.36;100.00;103160.75;4896231;29;20192;-41
2022/01/23 08:17:29;;;;;;;7.10;5.20;;;;;;;5.39;100.00;103168.78;4894068;29;20220;-43
2022/01/23 08:19:59;;;;;;;10.27;5.20;;;;;;;5.42;100.00;103173.28;4895385;29;20183;-43
2022/01/23 08:22:26;;;;;;;7.85;5.30;;;;;;;5.47;100.00;103184.91;4897998;29;20224;-46
2022/01/23 08:24:54;;;;;;;11.27;5.68;;;;;;;5.48;100.00;103184.94;4897072;29;20635;-40
2022/01/23 08:27:20;;;;;;;13.35;6.13;;;;;;;5.46;100.00;103191.09;4897874;29;20591;-45
2022/01/23 08:29:46;;;;;;;10.45;5.30;;;;;;;5.51;100.00;103189.41;4896009;29;20245;-44
2022/01/23 08:32:11;;;;;;;8.77;4.95;;;;;;;5.58;100.00;103192.25;4897770;29;20607;-43
2022/01/23 08:34:37;;;;;;;8.23;4.90;;;;;;;5.57;100.00;103197.50;4897930;29;20208;-43
2022/01/23 08:37:05;;;;;;;7.05;5.07;;;;;;;5.57;100.00;103209.06;4897609;29;20331;-43
2022/01/23 08:39:34;;;;;;;9.73;5.25;;;;;;;5.58;100.00;103204.66;4897769;29;20669;-42
2022/01/23 08:41:59;;;;;;;7.53;4.43;;;;;;;5.63;100.00;103210.94;4897787;29;20177;-48
2022/01/23 08:44:27;;;;;;;8.25;5.25;;;;;;;5.60;100.00;103216.22;4897418;29;20240;-43
2022/01/23 08:46:54;;;;;;;7.15;4.70;;;;;;;5.67;100.00;103214.56;4897857;29;20193;-43
2022/01/23 08:49:21;;;;;;;9.07;4.97;;;;;;;5.69;100.00;103221.72;4897330;29;20177;-41
2022/01/23 08:51:48;;;;;;;8.15;4.53;;;;;;;5.60;100.00;103216.22;4897863;29;20176;-44
2022/01/23 08:54:14;;;;;;;8.95;5.18;;;;;;;5.63;100.00;103218.91;4897041;29;20195;-45
2022/01/23 08:56:40;;;;;;;12.95;5.10;;;;;;;5.66;100.00;103215.44;4897034;29;20741;-41
2022/01/23 08:59:05;;;;;;;8.85;4.90;;;;;;;5.65;100.00;103218.97;4897550;29;20188;-43
2022/01/23 09:01:35;;;;;;;7.38;3.95;;;;;;;5.62;100.00;103225.13;4897006;29;20185;-44
2022/01/23 09:04:05;;;;;;;5.40;3.85;;;;;;;5.61;100.00;103222.41;4897095;29;20559;-43
2022/01/23 09:06:32;;;;;;;7.07;4.30;;;;;;;5.64;100.00;103219.81;4897431;29;20188;-43
2022/01/23 09:08:59;;;;;;;6.28;4.50;;;;;;;5.64;100.00;103220.72;4897427;29;20181;-45
2022/01/23 09:14:05;;;;;;;8.68;4.55;;;;;;;5.61;100.00;103223.31;4896944;29;20314;-42
2022/01/23 09:16:31;;;;;;;13.07;4.57;;;;;;;5.64;100.00;103222.47;4896964;29;20208;-44
2022/01/23 09:18:57;;;;;;;6.95;3.90;;;;;;;5.70;100.00;103223.50;4896414;29;20248;-44
2022/01/23 09:21:22;;;;;;;8.93;4.97;;;;;;;5.68;100.00;103219.91;4897363;29;20169;-43
2022/01/23 09:23:48;;;;;;;6.68;4.22;;;;;;;5.74;100.00;103220.03;4896276;29;20197;-43
2022/01/23 09:26:16;;;;;;;8.20;4.45;;;;;;;5.70;100.00;103227.94;4897135;29;20647;-45
2022/01/23 09:28:44;;;;;;;6.60;4.18;;;;;;;5.71;100.00;103212.00;4896808;29;20252;-43
2022/01/23 09:31:12;;;;;;;8.30;4.40;;;;;;;5.72;100.00;103219.09;4896971;29;20181;-44
2022/01/23 09:33:37;;;;;;;12.02;4.97;;;;;;;5.77;100.00;103220.13;4896702;29;20668;-46
2022/01/23 09:36:03;;;;;;;10.82;5.15;;;;;;;5.74;100.00;103216.47;4895323;29;20240;-43
2022/01/23 09:38:29;;;;;;;10.25;5.05;;;;;;;5.77;100.00;103204.16;4896936;29;20586;-43
2022/01/23 09:40:57;;;;;;;8.00;4.65;;;;;;;5.94;100.00;103212.47;4888932;29;20209;-48
2022/01/23 09:43:24;;;;;;;11.05;5.85;;;;;;;5.95;100.00;103206.31;4892258;29;20181;-43
2022/01/23 09:45:52;;;;;;;12.80;5.68;;;;;;;6.02;100.00;103217.06;4893730;29;20180;-47
2022/01/23 09:48:19;;;;;;;12.80;6.85;;;;;;;6.04;100.00;103215.34;4893897;29;20208;-43
2022/01/23 09:50:46;;;;;;;12.07;6.00;;;;;;;5.96;100.00;103218.72;4895516;29;20399;-46
2022/01/23 09:53:13;;;;;;;7.82;4.72;;;;;;;6.04;100.00;103221.56;4895873;29;20216;-41
2022/01/23 09:55:43;;;;;;;8.73;4.78;;;;;;;6.00;100.00;103224.13;4895756;29;20180;-45
2022/01/23 09:58:10;;;;;;;10.55;4.43;;;;;;;6.02;100.00;103225.94;4894948;29;20192;-42
2022/01/23 10:00:35;;;;;;;6.47;4.13;;;;;;;6.19;100.00;103239.59;4895903;29;20188;-44
2022/01/23 10:03:01;;;;;;;8.45;4.25;;;;;;;6.23;100.00;103241.44;4895659;29;20635;-46
2022/01/23 10:05:27;;;;;;;12.10;4.25;;;;;;;6.23;100.00;103232.53;4895223;29;20190;-40
2022/01/23 10:07:53;;;;;;;10.60;5.30;;;;;;;6.23;100.00;103238.78;4895997;29;20689;-42
2022/01/23 10:10:24;;;;;;;11.93;4.65;;;;;;;6.27;100.00;103242.38;4896209;29;20188;-41
2022/01/23 10:12:55;;;;;;;6.75;4.88;;;;;;;6.22;100.00;103246.72;4892187;29;20793;-42
2022/01/23 10:15:25;;;;;;;11.05;4.53;;;;;;;6.43;100.00;103243.53;4894170;29;20209;-43
2022/01/23 10:17:50;;;;;;;10.23;4.88;;;;;;;6.56;100.00;103240.25;4895711;29;20730;-41
2022/01/23 10:20:15;;;;;;;8.15;4.18;;;;;;;6.41;100.00;103246.19;4896113;29;20181;-45
2022/01/23 10:22:45;;;;;;;10.38;4.43;;;;;;;6.57;100.00;103240.25;4895918;29;20169;-41
2022/01/23 10:25:16;;;;;;;12.23;4.63;;;;;;;6.86;100.00;103245.16;4894966;29;20581;-42
2022/01/23 10:27:57;;;;;;;10.27;4.75;;;;;;;6.87;100.00;103246.97;4895350;29;20706;-44
2022/01/23 10:30:25;;;;;;;12.95;4.28;;;;;;;6.92;100.00;103241.72;4895028;29;20310;-43
2022/01/23 10:33:06;;;;;;;12.32;4.32;;;;;;;6.96;100.00;103236.44;4895720;29;20189;-41
2022/01/23 10:35:32;;;;;;;7.43;3.42;;;;;;;6.90;100.00;103241.69;4895745;29;20267;-41
2022/01/23 10:38:05;;;;;;;10.68;3.95;;;;;;;6.91;100.00;103242.56;4895622;29;20212;-40
2022/01/23 10:40:36;;;;;;;7.90;3.60;;;;;;;6.98;100.00;103229.38;4895599;29;20705;-42
2022/01/23 10:48:47;;;;;;;5.63;3.25;;;;;;;7.17;100.00;103234.97;4895784;29;20177;-40
2022/01/23 10:51:26;;;;;;;11.65;3.25;;;;;;;7.17;100.00;103230.56;4895489;29;20196;-44
2022/01/23 10:54:13;;;;;;;9.43;3.28;;;;;;;7.15;100.00;103236.72;4895693;29;20216;-41
2022/01/23 10:57:07;;;;;;;10.90;3.50;;;;;;;7.04;100.00;103235.66;4894899;29;20251;-45
2022/01/23 10:59:47;;;;;;;8.85;3.45;;;;;;;7.17;100.00;103229.63;4895531;29;20157;-40
2022/01/23 11:02:21;;;;;;;8.98;3.17;;;;;;;7.27;100.00;103238.69;4895746;29;20279;-40
2022/01/23 11:05:07;;;;;;;10.48;3.50;;;;;;;7.35;100.00;103234.38;4895398;29;20165;-41
2022/01/23 11:07:33;;;;;;;16.33;3.45;;;;;;;7.41;100.00;103226.41;4895168;29;20615;-40
2022/01/23 11:10:10;;;;;;;10.23;3.08;;;;;;;7.27;100.00;103238.69;4895443;29;20280;-41
2022/01/23 11:18:07;;;;;;;12.98;3.58;;;;;;;7.28;100.00;103229.78;4895145;29;20185;-40
2022/01/23 11:20:32;;;;;;;9.15;3.10;;;;;;;7.32;100.00;103231.63;4895439;29;20634;-41
2022/01/23 11:23:23;;;;;;;10.57;3.60;;;;;;;7.25;100.00;103245.75;4895475;29;20181;-45
2022/01/23 11:25:51;;;;;;;10.57;3.45;;;;;;;7.14;100.00;103226.94;4895214;29;20187;-42
2022/01/23 11:28:17;;;;;;;16.00;3.70;;;;;;;7.29;100.00;103234.28;4895196;29;20169;-42
2022/01/23 11:30:46;;;;;;;11.43;3.95;;;;;;;7.15;100.00;103229.63;4894940;29;20189;-42
2022/01/23 11:33:16;;;;;;;14.27;3.25;;;;;;;7.30;100.00;103220.03;4895237;29;20171;-40
2022/01/23 11:35:42;;;;;;;10.32;3.90;;;;;;;7.30;100.00;103230.72;4894630;29;20276;-41
2022/01/23 11:38:12;;;;;;;10.68;3.75;;;;;;;7.35;100.00;103229.03;4895346;29;20207;-41
2022/01/23 11:50:38;;;;;;;13.90;4.10;;;;;;;7.27;100.00;103234.25;4895882;29;20264;-41
2022/01/23 11:54:43;;;;;;;8.38;3.17;;;;;;;7.39;100.00;103226.41;4898872;29;20181;-42
2022/01/23 11:57:36;;;;;;;14.20;3.22;;;;;;;7.42;99.90;103222.91;4898834;29;20577;-40
2022/01/23 12:00:31;;;;;;;10.50;3.08;;;;;;;7.58;98.85;103218.66;4898643;29;20188;-41
2022/01/23 12:03:17;;;;;;;14.20;3.38;;;;;;;7.40;98.92;103221.97;4899026;29;20229;-41
2022/01/23 12:05:45;;;;;;;8.43;2.65;;;;;;;7.49;98.81;103216.75;4898797;29;20173;-40
2022/01/23 12:08:27;;;;;;;11.52;3.10;;;;;;;7.41;98.48;103213.09;4897627;29;20173;-41
2022/01/23 12:16:22;;;;;;;9.40;2.75;;;;;;;7.38;98.35;103213.06;4897010;29;20409;-41
2022/01/23 12:17:00;;;;;;;4.32;2.67;;;;;;;7.31;98.36;103216.53;4898150;29;20301;-42
2022/01/23 12:19:28;;;;;;;7.63;2.95;;;;;;;7.34;98.21;103222.78;4898451;29;20164;-41
2022/01/23 12:21:55;;;;;;;9.55;2.90;;;;;;;7.41;97.60;103214.00;4898385;29;20181;-41
2022/01/23 12:24:23;;;;;;;9.07;2.17;;;;;;;7.45;97.47;103216.69;4898514;29;20232;-45
2022/01/23 12:26:50;;;;;;;9.57;2.92;;;;;;;7.33;97.87;103205.00;4898061;29;20197;-46
2022/01/23 12:29:23;;;;;;;8.77;2.10;;;;;;;7.29;97.27;103210.28;4898252;29;20200;-41
2022/01/23 12:31:50;;;;;;;8.60;2.40;;;;;;;7.30;97.07;103207.59;4899295;29;20193;-43
2022/01/23 12:34:16;;;;;;;7.03;2.50;;;;;;;7.50;96.65;103205.22;4898820;29;20176;-42
2022/01/23 12:36:54;;;;;;;5.85;2.08;;;;;;;7.45;96.75;103204.25;4898794;29;20201;-43
2022/01/23 12:39:19;;;;;;;8.65;1.67;;;;;;;7.51;96.44;103209.66;4898227;29;20244;-41
2022/01/23 12:41:51;;;;;;;5.05;1.98;;;;;;;7.59;96.20;103207.13;4913429;29;20172;-45
2022/01/23 12:44:22;;;;;;;5.85;2.20;;;;;;;7.79;95.76;103208.25;4898472;29;20188;-41
2022/01/23 12:47:18;;;;;;;11.27;2.03;;;;;;;7.62;95.38;103220.47;4898819;29;20300;-42
2022/01/23 12:49:49;;;;;;;5.35;1.70;;;;;;;7.77;95.30;103220.66;4898681;29;20173;-44
2022/01/23 12:52:17;;;;;;;4.90;1.92;;;;;;;7.59;94.61;103209.78;4897891;29;20184;-41
2022/01/23 12:54:51;;;;;;;6.72;1.50;;;;;;;7.57;94.72;103214.19;4898611;29;20550;-43
2022/01/23 12:57:42;;;;;;;4.40;1.15;;;;;;;7.49;94.89;103213.19;4897661;29;20208;-41
2022/01/23 13:00:19;;;;;;;8.88;1.58;;;;;;;7.38;95.16;103218.38;4898460;29;20173;-45
2022/01/23 13:02:47;;;;;;;5.53;1.55;;;;;;;7.32;95.39;103216.53;4897268;29;20213;-43
2022/01/23 13:05:16;;;;;;;4.75;1.20;;;;;;;7.32;95.14;103215.63;4897748;29;20165;-44
2022/01/23 13:07:51;;;;;;;4.82;1.75;;;;;;;7.27;95.34;103212.03;4895970;29;20546;-42
2022/01/23 13:13:16;;;;;;;4.68;1.27;;;;;;;7.34;95.22;103217.44;4897063;29;20220;-44
2022/01/23 13:15:58;;;;;;;4.32;1.42;;;;;;;7.29;95.15;103219.16;4896493;29;20212;-42
2022/01/23 13:32:38;;;;;;;5.43;1.50;;;;;;;7.18;96.10;103226.13;4896569;29;20169;-43
2022/01/23 13:34:58;;;;;;;6.80;1.65;;;;;;;7.16;96.42;103214.53;4891028;29;20232;-41
2022/01/23 13:37:26;;;;;;;5.93;1.67;;;;;;;7.13;96.30;103222.50;4910223;29;20706;-42
2022/01/23 13:39:58;;;;;;;6.40;1.75;;;;;;;7.17;96.54;103232.31;4896667;29;20208;-42
2022/01/23 13:53:22;;;;;;;5.95;2.20;;;;;;;7.18;97.50;103234.13;4895778;29;20183;-42
2022/01/23 13:58:37;;;;;;;7.80;1.90;;;;;;;7.04;97.55;103239.25;4895921;29;20551;-41
2022/01/23 14:03:53;;;;;;;6.78;2.08;;;;;;;6.84;98.66;103246.00;4895435;29;20188;-42
2022/01/23 14:06:19;;;;;;;5.50;1.67;;;;;;;6.87;99.01;103244.31;4895436;29;20589;-41
2022/01/23 14:09:00;;;;;;;8.93;1.90;;;;;;;6.85;99.27;103247.81;4895843;29;20228;-42
2022/01/23 14:11:27;;;;;;;8.10;2.00;;;;;;;6.68;99.55;103242.22;4895540;29;20201;-42
2022/01/23 14:13:52;;;;;;;7.40;2.30;;;;;;;6.78;99.96;103238.84;4894614;29;20385;-43
2022/01/23 14:16:25;;;;;;;5.20;1.95;;;;;;;6.76;99.53;103246.78;4896356;29;20204;-43
2022/01/23 14:18:50;;;;;;;8.15;2.17;;;;;;;6.71;99.62;103244.91;4904226;29;20176;-43
2022/01/23 14:21:16;;;;;;;5.50;2.30;;;;;;;6.62;100.00;103239.44;4914794;29;20157;-43
2022/01/23 14:23:53;;;;;;;6.57;1.92;;;;;;;6.55;100.00;103246.44;4914918;29;20191;-42
2022/01/23 14:26:20;;;;;;;7.78;1.95;;;;;;;6.59;100.00;103251.84;4915003;29;20187;-43
2022/01/23 14:28:50;;;;;;;10.43;2.65;;;;;;;6.58;100.00;103252.72;4902230;29;20295;-42
2022/01/23 14:31:20;;;;;;;8.20;2.33;;;;;;;6.56;100.00;103254.47;4896551;29;20588;-42
2022/01/23 14:33:49;;;;;;;5.28;1.80;;;;;;;6.50;100.00;103249.00;4895768;29;20232;-42
2022/01/23 14:36:17;;;;;;;5.32;2.15;;;;;;;6.47;100.00;103251.63;4895991;29;20196;-42
2022/01/23 14:38:54;;;;;;;9.30;2.00;;;;;;;6.49;100.00;103252.53;4896197;29;20271;-42
2022/01/23 14:41:19;;;;;;;6.68;2.05;;;;;;;6.47;100.00;103251.63;4895952;29;20214;-40
2022/01/23 14:43:45;;;;;;;6.20;2.08;;;;;;;6.51;100.00;103261.44;4909902;29;20291;-43
2022/01/23 14:46:12;;;;;;;7.32;2.38;;;;;;;6.42;100.00;103258.63;4895633;29;20211;-43
2022/01/23 14:48:47;;;;;;;7.78;2.50;;;;;;;6.43;100.00;103263.09;4895367;29;20180;-42
2022/01/23 14:51:21;;;;;;;5.68;2.08;;;;;;;6.40;100.00;103266.56;4877181;29;20173;-44
2022/01/23 14:53:48;;;;;;;7.15;2.03;;;;;;;6.42;100.00;103265.72;4877244;29;20157;-44
2022/01/23 14:56:14;;;;;;;6.93;2.30;;;;;;;6.47;100.00;103272.03;4876981;29;20217;-42
2022/01/23 14:58:41;;;;;;;8.90;2.60;;;;;;;6.36;100.00;103269.16;4876922;29;20233;-43